»·PEaware :: N4922Z KSLC-KBOI

N4922Z :: KSLC-KBOI

FLIGHT INFORMATION

Flight Status: Arrived
Operator: Privately registered:
United States
More flights under this callsign
Pilot: William N. (15320)
Aircraft: MITSUBISHI MU-2 MARQUISE
(MU2)
More flights by this aircraft type
Origin: KSLC Salt Lake City Intl
United States
Destination: KBOI Boise Air Terminal/Gowen
United States
More flights between these airports :: More routes between these airports
Route: +TWF BROPH SPUUD3
File this flight plan on PilotEdge
Remarks:
Altitude:
(Current/Filed)
20,000ft
Speed:
(Current/Filed)
275kts
Departed: 09-Mar-18 12:45 PM
Arrived: 09-Mar-18 01:56 PM
Distance/Time
Traveled:
252nm/1:10
Distance/Time
To Go:
Arrived

Flight Plot

Page will automatically refresh every two minutes.

Flight plan parsing failed; only flown route is shown


Map Options




Map Legend


Flown Route
Filed Route
Departure Airport
Arrival Airport
Navaid (VOR, NDB)
Fix

Horizontal Profiles

Position Reports

Time Latitude Longitude Heading Altitude Ground
Speed
09-Mar-18 12:12 40.776629 -111.958901 178 4231ft 0kts
09-Mar-18 12:13 40.776629 -111.958901 178 4231ft 0kts
09-Mar-18 12:14 40.776629 -111.958901 178 4231ft 0kts
09-Mar-18 12:16 40.776629 -111.958901 179 4231ft 0kts
09-Mar-18 12:17 40.776629 -111.958901 179 4231ft 0kts
09-Mar-18 12:18 40.776629 -111.958901 179 4231ft 0kts
09-Mar-18 12:19 40.776629 -111.958901 179 4231ft 0kts
09-Mar-18 12:20 40.776629 -111.958901 179 4231ft 0kts
09-Mar-18 12:21 40.776629 -111.958901 179 4231ft 0kts
09-Mar-18 12:22 40.776629 -111.958901 179 4231ft 0kts
09-Mar-18 12:23 40.776629 -111.958901 179 4231ft 0kts
09-Mar-18 12:24 40.776629 -111.958901 179 4231ft 0kts
09-Mar-18 12:25 40.776629 -111.958901 179 4231ft 0kts
09-Mar-18 12:26 40.776629 -111.958901 179 4231ft 0kts
09-Mar-18 12:27 40.776629 -111.958901 179 4231ft 0kts
09-Mar-18 12:28 40.776629 -111.958901 179 4231ft 0kts
09-Mar-18 12:29 40.776629 -111.958901 179 4231ft 0kts
09-Mar-18 12:30 40.776629 -111.958901 179 4231ft 0kts
09-Mar-18 12:31 40.776629 -111.958901 179 4231ft 0kts
09-Mar-18 12:32 40.776629 -111.958901 179 4231ft 0kts
09-Mar-18 12:33 40.776629 -111.958901 179 4231ft 0kts
09-Mar-18 12:34 40.776629 -111.958901 179 4231ft 0kts
09-Mar-18 12:35 40.776629 -111.958901 179 4231ft 0kts
09-Mar-18 12:36 40.776629 -111.958901 179 4231ft 0kts
09-Mar-18 12:37 40.776629 -111.958901 179 4231ft 0kts
09-Mar-18 12:38 40.776523 -111.958964 232 4231ft 4kts
09-Mar-18 12:39 40.776519 -111.959946 268 4231ft 0kts
09-Mar-18 12:40 40.773808 -111.960624 181 4231ft 0kts
09-Mar-18 12:41 40.772856 -111.960821 238 4231ft 0kts
09-Mar-18 12:42 40.772856 -111.960821 238 4231ft 0kts
09-Mar-18 12:43 40.772751 -111.961220 265 4231ft 5kts
09-Mar-18 12:44 40.776144 -111.962082 359 4231ft 82kts
09-Mar-18 12:45 40.819879 -111.961748 358 5513ft 197kts
09-Mar-18 12:46 40.872597 -111.961514 350 8167ft 198kts
09-Mar-18 12:47 40.929277 -111.957288 0 10595ft 216kts
09-Mar-18 12:48 40.989581 -111.953146 336 12829ft 216kts
09-Mar-18 12:49 41.035161 -111.994309 309 15098ft 204kts
09-Mar-18 12:50 41.072961 -112.048516 298 17449ft 199kts
09-Mar-18 12:51 41.102872 -112.107335 289 19741ft 193kts
09-Mar-18 12:52 41.131615 -112.181512 305 19983ft 264kts
09-Mar-18 12:53 41.183136 -112.254464 301 19977ft 272kts
09-Mar-18 12:54 41.228853 -112.335343 301 19978ft 274kts
09-Mar-18 12:55 41.274721 -112.416566 301 19975ft 275kts
09-Mar-18 12:56 41.321913 -112.496581 304 19974ft 276kts
09-Mar-18 12:57 41.371614 -112.574128 304 20038ft 275kts
09-Mar-18 12:58 41.421238 -112.651459 304 20038ft 276kts
09-Mar-18 12:59 41.469472 -112.730609 300 20047ft 275kts
09-Mar-18 13:00 41.514167 -112.813110 300 20051ft 276kts
09-Mar-18 13:01 41.558310 -112.891135 301 21102ft 249kts
09-Mar-18 13:02 41.600740 -112.961418 301 22052ft 246kts
09-Mar-18 13:03 41.645385 -113.035874 301 22059ft 265kts
09-Mar-18 13:04 41.691772 -113.114101 301 22056ft 271kts
09-Mar-18 13:05 41.739679 -113.192879 304 22056ft 275kts
09-Mar-18 13:06 41.788422 -113.271725 301 22055ft 275kts
09-Mar-18 13:07 41.835521 -113.352192 301 22054ft 275kts
09-Mar-18 13:08 41.882287 -113.433385 301 22008ft 276kts
09-Mar-18 13:09 41.929248 -113.515214 301 22006ft 276kts
09-Mar-18 13:10 41.975831 -113.596202 300 22005ft 275kts
09-Mar-18 13:11 42.021846 -113.677240 299 22015ft 275kts
09-Mar-18 13:12 42.068031 -113.758905 300 22015ft 276kts
09-Mar-18 13:13 42.114845 -113.840490 301 22013ft 277kts
09-Mar-18 13:14 42.161864 -113.922247 300 22012ft 276kts
09-Mar-18 13:15 42.208259 -114.004347 300 22011ft 276kts
09-Mar-18 13:16 42.254658 -114.086512 300 22011ft 275kts
09-Mar-18 13:17 42.300910 -114.168704 300 22009ft 274kts
09-Mar-18 13:18 42.346980 -114.250805 300 22009ft 274kts
09-Mar-18 13:19 42.392787 -114.332741 300 22007ft 274kts
09-Mar-18 13:20 42.438540 -114.414515 300 22007ft 274kts
09-Mar-18 13:21 42.484438 -114.497088 300 21996ft 274kts
09-Mar-18 13:22 42.534405 -114.574333 305 21995ft 277kts
09-Mar-18 13:23 42.585800 -114.650898 304 21993ft 277kts
09-Mar-18 13:24 42.632229 -114.731823 302 22005ft 276kts
09-Mar-18 13:25 42.681109 -114.811266 303 22022ft 277kts
09-Mar-18 13:26 42.731263 -114.890197 306 22021ft 279kts
09-Mar-18 13:27 42.783708 -114.965318 307 20994ft 270kts
09-Mar-18 13:28 42.834370 -115.038095 306 19842ft 264kts
09-Mar-18 13:29 42.884107 -115.109699 306 19020ft 253kts
09-Mar-18 13:30 42.929811 -115.175714 306 18834ft 236kts
09-Mar-18 13:31 42.976984 -115.244343 307 17745ft 258kts
09-Mar-18 13:32 43.027598 -115.318049 309 16392ft 278kts
09-Mar-18 13:33 43.081288 -115.396543 309 14783ft 286kts
09-Mar-18 13:34 43.134745 -115.474499 309 13257ft 286kts
09-Mar-18 13:35 43.188373 -115.552983 309 11723ft 277kts
09-Mar-18 13:36 43.237044 -115.624027 309 10981ft 238kts
09-Mar-18 13:37 43.278835 -115.691781 295 10000ft 232kts
09-Mar-18 13:38 43.306639 -115.765819 295 9983ft 216kts
09-Mar-18 13:39 43.335196 -115.842567 295 9634ft 237kts
09-Mar-18 13:40 43.364440 -115.920974 295 8864ft 214kts
09-Mar-18 13:41 43.390014 -115.989773 296 8335ft 199kts
09-Mar-18 13:42 43.415931 -116.059803 297 7929ft 212kts
09-Mar-18 13:43 43.442939 -116.132511 294 7508ft 216kts
09-Mar-18 13:44 43.469543 -116.206053 291 7329ft 209kts
09-Mar-18 13:45 43.494692 -116.279768 290 6986ft 213kts
09-Mar-18 13:46 43.519623 -116.349414 291 6933ft 211kts
09-Mar-18 13:47 43.546930 -116.424383 291 5768ft 219kts
09-Mar-18 13:48 43.577069 -116.494722 333 4956ft 209kts
09-Mar-18 13:49 43.621917 -116.469368 76 4961ft 160kts
09-Mar-18 13:50 43.627888 -116.414719 118 4967ft 134kts
09-Mar-18 13:51 43.612583 -116.367856 121 4791ft 134kts
09-Mar-18 13:52 43.597247 -116.322583 120 4106ft 122kts
09-Mar-18 13:53 43.582843 -116.280285 117 3445ft 119kts
09-Mar-18 13:54 43.569416 -116.240543 115 2864ft 104kts
09-Mar-18 13:55 43.563822 -116.224978 165 2842ft 11kts
09-Mar-18 13:56 43.563081 -116.225382 237 2842ft 6kts
09-Mar-18 13:57 43.563543 -116.228491 213 2841ft 11kts
09-Mar-18 13:58 43.563461 -116.229614 25 2841ft 0kts
09-Mar-18 13:59 43.563461 -116.229614 25 2841ft 0kts
09-Mar-18 14:00 43.563461 -116.229614 25 2841ft 0kts

Navigation Log

Ident Type
Flight plan parsing failed, navigation log unavailable